Time;durP1;ratioP1;P1;durP2;ratioP2;P2;SDS_P1;SDS_P2;PMS_P1;PMS_P2;Temp;Humidity;BMP_temperature;BMP_pressure;BME280_temperature;BME280_humidity;BME280_pressure;Samples;Min_cycle;Max_cycle;Signal;HPM_P1;HPM_P2
2022/12/15 00:38:44;;;;;;;21.70;11.53;;;-3.90;99.90;;;;;;5038994;28;20044;-41
2022/12/15 00:41:18;;;;;;;19.90;11.63;;;-3.90;99.90;;;;;;5038661;28;20035;-35
2022/12/15 00:43:45;;;;;;;19.13;11.50;;;-3.90;99.90;;;;;;5040996;28;20037;-38
2022/12/15 00:48:55;;;;;;;18.27;10.97;;;-3.90;99.90;;;;;;5043994;28;20107;-38
2022/12/15 00:51:21;;;;;;;23.57;13.00;;;-4.00;99.90;;;;;;5043808;28;20037;-38
2022/12/15 01:21:15;;;;;;;17.80;10.93;;;-4.10;99.90;;;;;;5042772;28;20465;-40
2022/12/15 01:23:40;;;;;;;20.47;11.93;;;-4.10;99.90;;;;;;5042181;28;20017;-42
2022/12/15 01:26:07;;;;;;;21.00;11.83;;;-4.10;99.90;;;;;;5043193;28;20046;-40
2022/12/15 01:28:33;;;;;;;16.47;10.40;;;-4.10;99.90;;;;;;5042339;28;20551;-39
2022/12/15 01:30:59;;;;;;;19.70;12.10;;;-4.10;99.90;;;;;;5041978;28;20080;-38
2022/12/15 01:33:24;;;;;;;19.97;10.63;;;-4.10;99.90;;;;;;5043128;28;20132;-38
2022/12/15 01:36:00;;;;;;;19.13;11.13;;;-4.10;99.90;;;;;;5042021;28;20028;-38
2022/12/15 01:38:27;;;;;;;21.10;11.77;;;-4.10;99.90;;;;;;5042980;28;20045;-39
2022/12/15 01:41:02;;;;;;;18.90;11.60;;;-4.20;99.90;;;;;;5042225;28;20032;-39
2022/12/15 01:43:32;;;;;;;19.17;11.47;;;-4.10;99.90;;;;;;5022365;28;20040;-38
2022/12/15 01:46:05;;;;;;;18.43;11.73;;;-4.10;99.90;;;;;;5037648;28;20021;-40
2022/12/15 01:48:45;;;;;;;18.27;10.87;;;-4.10;99.90;;;;;;5023028;28;20569;-39
2022/12/15 01:51:19;;;;;;;22.37;11.77;;;-4.10;99.90;;;;;;5038549;28;20158;-40
2022/12/15 01:53:54;;;;;;;21.00;11.27;;;-4.20;99.90;;;;;;5022444;28;20116;-38
2022/12/15 01:56:22;;;;;;;17.57;10.97;;;-4.20;99.90;;;;;;5038293;28;20488;-40
2022/12/15 01:58:50;;;;;;;18.90;10.60;;;-4.20;99.90;;;;;;5041619;28;20544;-39
2022/12/15 02:01:19;;;;;;;19.57;11.87;;;-4.20;99.90;;;;;;5042049;28;20025;-39
2022/12/15 02:03:47;;;;;;;19.10;11.33;;;-4.10;99.90;;;;;;5041806;28;20469;-40
2022/12/15 02:06:13;;;;;;;20.87;10.43;;;-4.10;99.90;;;;;;5041194;28;20723;-42
2022/12/15 02:08:41;;;;;;;17.00;10.87;;;-4.10;99.90;;;;;;5042236;28;20031;-39
2022/12/15 02:11:51;;;;;;;19.90;10.50;;;-4.20;99.90;;;;;;5040834;28;20479;-40
2022/12/15 02:14:48;;;;;;;13.83;9.20;;;-4.10;99.90;;;;;;5041375;28;20029;-40
2022/12/15 02:17:36;;;;;;;20.23;10.63;;;-4.20;99.90;;;;;;5041448;28;20063;-37
2022/12/15 02:20:20;;;;;;;19.20;10.50;;;-4.20;99.90;;;;;;5041323;28;20095;-40
2022/12/15 02:23:27;;;;;;;17.10;8.93;;;-4.20;99.90;;;;;;5041111;28;20033;-40
2022/12/15 02:25:58;;;;;;;16.77;9.97;;;-4.20;99.90;;;;;;5040921;28;20491;-38
2022/12/15 02:28:55;;;;;;;18.43;11.00;;;-4.10;99.90;;;;;;5041082;28;20117;-40
2022/12/15 02:31:48;;;;;;;18.43;10.27;;;-4.20;99.90;;;;;;5040313;28;20460;-41
2022/12/15 02:34:22;;;;;;;14.83;9.20;;;-4.20;99.90;;;;;;5041001;28;20036;-40
2022/12/15 02:36:53;;;;;;;15.77;9.50;;;-4.20;99.90;;;;;;5041460;28;20056;-38
2022/12/15 02:39:19;;;;;;;22.63;10.73;;;-4.20;99.90;;;;;;5041302;28;20028;-39
2022/12/15 02:41:50;;;;;;;17.23;10.60;;;-4.20;99.90;;;;;;5041348;28;20029;-38
2022/12/15 02:44:54;;;;;;;16.20;9.90;;;-4.20;99.90;;;;;;5041452;28;20059;-38
2022/12/15 02:47:38;;;;;;;15.77;10.37;;;-4.30;99.90;;;;;;5016914;28;20416;-40
2022/12/15 02:50:09;;;;;;;18.40;10.13;;;-4.30;99.90;;;;;;5039378;28;20033;-40
2022/12/15 02:52:46;;;;;;;15.50;10.23;;;-4.30;99.90;;;;;;5040461;28;20585;-39
2022/12/15 02:55:24;;;;;;;15.17;9.27;;;-4.30;99.90;;;;;;5041180;28;20157;-41
2022/12/15 02:58:05;;;;;;;18.03;10.37;;;-4.30;99.90;;;;;;5041472;28;20477;-38
2022/12/15 03:00:37;;;;;;;16.70;9.33;;;-4.30;99.90;;;;;;5041304;28;20045;-39
2022/12/15 03:03:04;;;;;;;14.07;8.48;;;-4.30;99.90;;;;;;5041241;28;20017;-40
2022/12/15 03:05:30;;;;;;;18.60;9.27;;;-4.30;99.90;;;;;;5042066;28;20481;-37
2022/12/15 03:07:56;;;;;;;16.40;9.30;;;-4.30;99.90;;;;;;5039828;28;20035;-37
2022/12/15 03:10:23;;;;;;;16.07;9.63;;;-4.30;99.90;;;;;;5041348;28;20025;-39
2022/12/15 03:12:53;;;;;;;17.37;9.90;;;-4.30;99.90;;;;;;5040798;28;20020;-40
2022/12/15 03:15:19;;;;;;;18.57;9.97;;;-4.30;99.90;;;;;;5040543;28;20833;-39
2022/12/15 03:17:44;;;;;;;15.63;10.00;;;-4.20;99.90;;;;;;5040547;28;20033;-40
2022/12/15 03:20:10;;;;;;;17.87;10.27;;;-4.20;99.90;;;;;;5039838;28;20548;-39
2022/12/15 03:22:37;;;;;;;19.33;10.50;;;-4.20;99.90;;;;;;5039898;28;20033;-39
2022/12/15 03:25:03;;;;;;;17.40;10.47;;;-4.20;99.90;;;;;;5040241;28;20798;-41
2022/12/15 03:27:29;;;;;;;17.83;9.43;;;-4.20;99.90;;;;;;5040061;28;20067;-40
2022/12/15 03:29:56;;;;;;;15.77;9.50;;;-4.30;99.90;;;;;;5040130;28;20075;-39
2022/12/15 03:32:22;;;;;;;14.10;9.07;;;-4.30;99.90;;;;;;5039803;28;20126;-40
2022/12/15 03:34:47;;;;;;;15.10;9.20;;;-4.30;99.90;;;;;;5039425;28;20028;-39
2022/12/15 03:37:13;;;;;;;17.93;8.77;;;-4.20;99.90;;;;;;5039421;28;20084;-40
2022/12/15 03:39:38;;;;;;;15.07;9.10;;;-4.30;99.90;;;;;;5040803;28;20822;-40
2022/12/15 03:42:07;;;;;;;17.27;9.77;;;-4.30;99.90;;;;;;5039961;28;20058;-39
2022/12/15 03:44:32;;;;;;;14.60;9.60;;;-4.30;99.90;;;;;;5040129;28;20028;-40
2022/12/15 03:46:58;;;;;;;15.97;10.40;;;-4.30;99.90;;;;;;5040469;28;20033;-41
2022/12/15 03:49:23;;;;;;;15.93;9.93;;;-4.30;99.90;;;;;;5039768;28;20211;-40
2022/12/15 03:51:49;;;;;;;18.07;10.37;;;-4.30;99.90;;;;;;5040912;28;20091;-39
2022/12/15 03:54:14;;;;;;;15.73;9.47;;;-4.40;99.90;;;;;;5040073;28;20039;-40
2022/12/15 03:56:40;;;;;;;17.30;9.57;;;-4.40;99.90;;;;;;5038946;28;20033;-37
2022/12/15 03:59:05;;;;;;;18.33;10.07;;;-4.40;99.90;;;;;;5039964;28;20029;-41
2022/12/15 04:01:33;;;;;;;16.43;10.37;;;-4.30;99.90;;;;;;5039325;28;20037;-40
2022/12/15 04:04:00;;;;;;;15.60;9.47;;;-4.40;99.90;;;;;;5038905;28;20810;-40
2022/12/15 04:06:26;;;;;;;19.03;10.67;;;-4.40;99.90;;;;;;5040205;28;20131;-41
2022/12/15 04:08:54;;;;;;;17.57;10.17;;;-4.40;99.90;;;;;;5039433;28;20013;-41
2022/12/15 04:11:20;;;;;;;17.07;9.77;;;-4.50;99.90;;;;;;5038930;28;20166;-38
2022/12/15 04:13:46;;;;;;;16.20;10.20;;;-4.50;99.90;;;;;;5040062;28;20029;-39
2022/12/15 04:16:11;;;;;;;17.47;10.03;;;-4.50;99.90;;;;;;5039229;28;20449;-39
2022/12/15 04:18:40;;;;;;;14.43;9.20;;;-4.50;99.90;;;;;;5039962;28;20028;-38
2022/12/15 04:21:06;;;;;;;17.30;9.43;;;-4.50;99.90;;;;;;5039444;28;20033;-38
2022/12/15 04:23:31;;;;;;;15.77;9.43;;;-4.60;99.90;;;;;;5039864;28;20032;-35
2022/12/15 05:32:17;;;;;;;16.60;8.83;;;-4.60;99.90;;;;;;5043286;28;20056;-37
2022/12/15 05:34:42;;;;;;;14.93;9.47;;;-4.60;99.90;;;;;;5043430;28;20723;-40
2022/12/15 05:37:08;;;;;;;17.23;9.47;;;-4.60;99.90;;;;;;5042796;28;20041;-40
2022/12/15 05:39:34;;;;;;;15.23;9.00;;;-4.60;99.90;;;;;;5043537;28;20025;-40
2022/12/15 05:41:59;;;;;;;15.27;9.37;;;-4.60;99.90;;;;;;5043957;28;20116;-38
2022/12/15 05:44:27;;;;;;;15.70;9.23;;;-4.60;99.90;;;;;;5043497;28;20589;-41
2022/12/15 05:46:55;;;;;;;18.03;9.17;;;-4.60;99.90;;;;;;5043735;28;20131;-39
2022/12/15 05:49:23;;;;;;;14.07;9.50;;;-4.60;99.90;;;;;;5042944;28;20033;-40
2022/12/15 05:51:48;;;;;;;13.03;8.83;;;-4.60;99.90;;;;;;5042752;28;20104;-40
2022/12/15 05:54:17;;;;;;;16.07;8.93;;;-4.50;99.90;;;;;;5042868;28;20790;-40
2022/12/15 05:56:42;;;;;;;16.37;9.33;;;-4.60;99.90;;;;;;5042637;28;20119;-40
2022/12/15 05:59:08;;;;;;;17.37;8.70;;;-4.60;99.90;;;;;;5043012;28;20024;-39
2022/12/15 06:01:34;;;;;;;14.80;9.60;;;-4.60;99.90;;;;;;5042471;28;20167;-40
2022/12/15 06:04:00;;;;;;;16.77;9.33;;;-4.60;99.90;;;;;;5042732;28;20040;-40
2022/12/15 06:06:26;;;;;;;15.17;8.90;;;-4.60;99.90;;;;;;5043274;28;20051;-37
2022/12/15 06:08:52;;;;;;;15.40;9.10;;;-4.60;99.90;;;;;;5042692;28;20025;-38
2022/12/15 06:11:19;;;;;;;15.70;9.10;;;-4.60;99.90;;;;;;5043107;28;20159;-41
2022/12/15 06:13:45;;;;;;;16.60;9.63;;;-4.60;99.90;;;;;;5042660;28;20063;-39
2022/12/15 06:16:13;;;;;;;17.13;10.37;;;-4.60;99.90;;;;;;5043076;28;20530;-41
2022/12/15 06:18:41;;;;;;;17.73;10.10;;;-4.60;99.90;;;;;;5042010;28;20120;-41
2022/12/15 06:21:13;;;;;;;19.13;10.43;;;-4.60;99.90;;;;;;5042510;28;20813;-38
2022/12/15 06:23:39;;;;;;;15.43;10.40;;;-4.60;99.90;;;;;;5042486;28;20044;-41
2022/12/15 06:26:19;;;;;;;19.10;10.53;;;-4.60;99.90;;;;;;5042121;28;20025;-40
2022/12/15 06:28:45;;;;;;;18.30;11.30;;;-4.70;99.90;;;;;;5042665;28;20048;-40
2022/12/15 06:31:12;;;;;;;16.33;10.30;;;-4.70;99.90;;;;;;5041995;28;20151;-41
2022/12/15 06:33:38;;;;;;;19.83;11.47;;;-4.70;99.90;;;;;;5042509;28;20057;-40
2022/12/15 06:36:06;;;;;;;17.40;10.83;;;-4.70;99.90;;;;;;5041676;28;20562;-38
2022/12/15 06:38:33;;;;;;;19.37;11.17;;;-4.80;99.90;;;;;;5042532;28;20037;-40
2022/12/15 06:40:59;;;;;;;17.17;11.37;;;-4.80;99.90;;;;;;5042252;28;20087;-39
2022/12/15 06:43:26;;;;;;;20.00;10.97;;;-4.80;99.90;;;;;;5042797;28;20055;-38
2022/12/15 06:45:55;;;;;;;16.63;10.90;;;-4.70;99.90;;;;;;5041375;28;20242;-40
2022/12/15 06:48:22;;;;;;;21.00;11.33;;;-4.70;99.90;;;;;;5042060;28;20391;-39
2022/12/15 06:50:48;;;;;;;15.33;10.37;;;-4.70;99.90;;;;;;5041973;28;20029;-40
2022/12/15 06:53:16;;;;;;;18.20;10.30;;;-4.70;99.90;;;;;;5041177;28;20075;-41
2022/12/15 06:55:42;;;;;;;17.50;10.47;;;-4.70;99.90;;;;;;5041830;28;20466;-39
2022/12/15 06:58:08;;;;;;;17.03;10.50;;;-4.70;99.90;;;;;;5041261;28;20956;-39
2022/12/15 07:00:37;;;;;;;14.23;9.50;;;-4.70;99.90;;;;;;5041924;28;20358;-42
2022/12/15 07:03:09;;;;;;;18.23;10.10;;;-4.70;99.90;;;;;;5042006;28;20025;-39
2022/12/15 07:05:35;;;;;;;16.40;10.47;;;-4.70;99.90;;;;;;5041785;28;20123;-39
2022/12/15 07:08:00;;;;;;;19.87;10.90;;;-4.70;99.90;;;;;;5041748;28;20039;-38
2022/12/15 07:10:26;;;;;;;20.07;11.37;;;-4.70;99.90;;;;;;5041438;28;20120;-38
2022/12/15 07:12:51;;;;;;;16.80;10.13;;;-4.70;99.90;;;;;;5041451;28;20029;-41
2022/12/15 07:15:17;;;;;;;18.70;11.03;;;-4.80;99.90;;;;;;5041709;28;20028;-41
2022/12/15 07:17:42;;;;;;;17.80;10.80;;;-4.80;99.90;;;;;;5041159;28;20163;-41
2022/12/15 07:20:08;;;;;;;18.93;11.53;;;-4.80;99.90;;;;;;5041530;28;20029;-41
2022/12/15 07:22:34;;;;;;;17.53;11.07;;;-4.90;99.90;;;;;;5040516;28;20028;-37
2022/12/15 07:24:59;;;;;;;20.27;11.70;;;-4.90;99.90;;;;;;5041407;28;20024;-40
2022/12/15 07:27:25;;;;;;;19.93;11.57;;;-4.90;99.90;;;;;;5040984;28;20076;-40
2022/12/15 07:29:51;;;;;;;20.83;12.40;;;-4.90;99.90;;;;;;5041214;28;20040;-40
2022/12/15 07:32:17;;;;;;;19.17;11.93;;;-4.90;99.90;;;;;;5040388;28;20159;-41
2022/12/15 07:34:42;;;;;;;20.17;12.43;;;-4.90;99.90;;;;;;5040184;28;20084;-40
2022/12/15 07:37:11;;;;;;;21.13;12.27;;;-5.00;99.90;;;;;;5041203;28;20037;-38
2022/12/15 07:39:36;;;;;;;21.43;12.43;;;-5.00;99.90;;;;;;5041004;28;20112;-41
2022/12/15 07:42:03;;;;;;;20.37;11.63;;;-5.00;99.90;;;;;;5040813;28;20057;-40
2022/12/15 07:44:30;;;;;;;20.67;12.33;;;-5.00;99.90;;;;;;5041707;28;20043;-44
2022/12/15 07:46:56;;;;;;;21.50;11.70;;;-5.10;99.90;;;;;;5040527;28;20029;-41
2022/12/15 07:49:24;;;;;;;19.77;11.93;;;-5.00;99.90;;;;;;5041292;28;20033;-39
2022/12/15 07:51:50;;;;;;;19.03;11.20;;;-5.10;99.90;;;;;;5056797;28;20098;-38
2022/12/15 07:54:19;;;;;;;23.23;12.67;;;-5.10;99.90;;;;;;5040066;28;20393;-38
2022/12/15 07:56:45;;;;;;;20.90;12.13;;;-5.00;99.90;;;;;;5038718;28;20374;-40
2022/12/15 07:59:11;;;;;;;21.27;12.30;;;-5.00;99.90;;;;;;5038554;28;20024;-39
2022/12/15 08:01:36;;;;;;;20.53;12.17;;;-5.00;99.90;;;;;;5039316;28;20048;-40
2022/12/15 08:04:03;;;;;;;21.43;12.60;;;-5.00;99.90;;;;;;5039604;28;20079;-39
2022/12/15 08:06:29;;;;;;;19.77;11.97;;;-5.00;99.90;;;;;;5040652;28;20021;-39
2022/12/15 08:08:54;;;;;;;20.03;12.23;;;-5.00;99.90;;;;;;5039924;28;20025;-41
2022/12/15 08:11:23;;;;;;;21.30;11.80;;;-5.00;99.90;;;;;;5040042;28;20477;-39
2022/12/15 08:13:49;;;;;;;19.37;11.43;;;-5.00;99.90;;;;;;5040283;28;20028;-40
2022/12/15 08:16:15;;;;;;;19.40;10.83;;;-4.90;99.90;;;;;;5039415;28;20032;-42
2022/12/15 08:18:40;;;;;;;16.30;9.80;;;-4.90;99.90;;;;;;5039111;28;20044;-38
2022/12/15 08:21:08;;;;;;;18.33;10.80;;;-4.80;99.90;;;;;;5039733;28;20108;-39
2022/12/15 08:23:39;;;;;;;16.13;10.90;;;-4.80;99.90;;;;;;5039529;28;20119;-34
2022/12/15 08:26:12;;;;;;;19.00;11.10;;;-4.80;99.90;;;;;;5039830;28;20036;-40
2022/12/15 08:28:39;;;;;;;15.90;10.37;;;-4.80;99.90;;;;;;5039936;28;20060;-38
2022/12/15 08:31:13;;;;;;;18.13;11.20;;;-4.70;99.90;;;;;;5039766;28;20036;-39
2022/12/15 08:33:40;;;;;;;18.67;11.03;;;-4.70;99.90;;;;;;5039951;28;20433;-39
2022/12/15 08:36:08;;;;;;;18.70;11.13;;;-4.70;99.90;;;;;;5039649;28;20029;-37
2022/12/15 08:38:37;;;;;;;16.27;10.80;;;-4.70;99.90;;;;;;5038863;28;20028;-40
2022/12/15 08:41:18;;;;;;;19.80;11.13;;;-4.60;99.90;;;;;;5039421;28;20025;-39
2022/12/15 08:43:45;;;;;;;18.63;10.70;;;-4.60;99.90;;;;;;5039510;28;20760;-34
2022/12/15 08:46:11;;;;;;;17.50;10.37;;;-4.60;99.90;;;;;;5039374;28;20029;-38
2022/12/15 08:48:37;;;;;;;17.93;10.83;;;-4.60;99.90;;;;;;5040010;28;20035;-39
2022/12/15 08:51:03;;;;;;;18.33;11.33;;;-4.50;99.90;;;;;;5039211;28;20021;-40
2022/12/15 08:53:28;;;;;;;21.30;11.20;;;-4.50;99.90;;;;;;5039360;28;20028;-40
2022/12/15 08:55:54;;;;;;;15.60;9.77;;;-4.50;99.90;;;;;;5040045;28;20021;-40
2022/12/15 08:58:22;;;;;;;20.33;11.40;;;-4.50;99.90;;;;;;5039431;28;20036;-38
2022/12/15 09:00:48;;;;;;;17.50;11.47;;;-4.40;99.90;;;;;;5037647;28;20021;-40
2022/12/15 09:03:13;;;;;;;17.67;11.20;;;-4.40;99.90;;;;;;5039796;28;20090;-37
2022/12/15 09:05:39;;;;;;;20.63;11.63;;;-4.30;99.90;;;;;;5041926;28;20021;-40
2022/12/15 09:08:05;;;;;;;19.40;11.27;;;-4.30;99.90;;;;;;5042802;28;20029;-40
2022/12/15 09:10:30;;;;;;;22.23;10.90;;;-4.30;99.90;;;;;;5042650;28;20098;-39
2022/12/15 09:12:56;;;;;;;20.20;11.73;;;-4.30;99.90;;;;;;5043287;28;20029;-40
2022/12/15 09:15:22;;;;;;;21.73;11.73;;;-4.20;99.90;;;;;;5043401;28;20032;-40
2022/12/15 09:17:48;;;;;;;20.50;12.00;;;-4.20;99.90;;;;;;5043480;28;20144;-40
2022/12/15 09:20:13;;;;;;;19.87;12.23;;;-4.10;99.90;;;;;;5042557;28;20544;-37
2022/12/15 09:22:42;;;;;;;17.23;11.43;;;-4.10;99.90;;;;;;5043235;28;20079;-39
2022/12/15 09:25:08;;;;;;;24.10;13.07;;;-4.00;99.90;;;;;;5042057;28;20052;-40
2022/12/15 09:27:34;;;;;;;18.50;11.50;;;-4.00;99.90;;;;;;5043265;28;20203;-40
2022/12/15 09:30:00;;;;;;;20.20;12.10;;;-3.90;99.90;;;;;;5043308;28;20067;-39
2022/12/15 09:32:26;;;;;;;20.00;12.20;;;-3.90;99.90;;;;;;5043451;28;20105;-40
2022/12/15 09:34:52;;;;;;;19.23;10.83;;;-3.90;99.90;;;;;;5043242;28;20037;-38
2022/12/15 09:37:19;;;;;;;18.37;11.23;;;-3.90;99.90;;;;;;5043328;28;20064;-40
2022/12/15 09:39:48;;;;;;;17.17;10.23;;;-3.80;99.90;;;;;;5043079;28;20025;-39
2022/12/15 09:42:40;;;;;;;20.37;12.53;;;-3.80;99.90;;;;;;5042775;28;20114;-40
2022/12/15 09:45:16;;;;;;;18.77;10.57;;;-3.80;99.90;;;;;;5041191;28;20044;-40
2022/12/15 09:47:54;;;;;;;24.27;13.20;;;-3.70;99.90;;;;;;5042564;28;20017;-38
2022/12/15 09:50:28;;;;;;;25.07;13.27;;;-3.60;99.90;;;;;;5042010;28;20777;-37
2022/12/15 09:52:59;;;;;;;22.73;14.47;;;-3.60;99.90;;;;;;5042135;28;20021;-38
2022/12/15 09:55:30;;;;;;;19.70;12.97;;;-3.50;99.90;;;;;;5042192;28;20780;-40
2022/12/15 09:58:02;;;;;;;23.93;14.63;;;-3.50;99.90;;;;;;5042236;28;20039;-39
2022/12/15 10:00:46;;;;;;;23.55;14.00;;;-3.40;99.90;;;;;;5042641;28;20420;-39
2022/12/15 10:03:40;;;;;;;24.33;14.43;;;-3.30;99.90;;;;;;5041544;28;20029;-41
2022/12/15 10:06:05;;;;;;;;;;;-3.30;99.90;;;;;;5042181;28;20725;-38
2022/12/15 10:08:35;;;;;;;24.67;14.83;;;-3.30;99.90;;;;;;5042714;28;19908;-39
2022/12/15 10:11:04;;;;;;;26.27;14.43;;;-3.20;99.90;;;;;;5041822;28;20032;-38
2022/12/15 10:13:36;;;;;;;20.50;12.97;;;-3.20;99.90;;;;;;5040979;28;20140;-40
2022/12/15 10:16:15;;;;;;;22.73;13.97;;;-3.10;99.90;;;;;;5043037;28;20529;-40
2022/12/15 10:19:06;;;;;;;23.53;13.93;;;-3.10;99.90;;;;;;5041718;28;20370;-40
2022/12/15 10:21:32;;;;;;;21.57;13.47;;;-3.10;99.90;;;;;;5043134;28;20033;-40
2022/12/15 10:24:13;;;;;;;21.27;13.50;;;-3.00;99.90;;;;;;5042905;28;20427;-41
2022/12/15 10:26:40;;;;;;;20.57;13.97;;;-3.00;99.90;;;;;;5042932;28;20036;-41
2022/12/15 10:29:28;;;;;;;19.30;13.60;;;-2.90;99.90;;;;;;5043353;28;20132;-40
2022/12/15 10:31:59;;;;;;;23.47;15.73;;;-2.90;99.90;;;;;;5041923;28;20045;-41
2022/12/15 10:34:28;;;;;;;24.80;14.73;;;-2.80;99.90;;;;;;5040227;28;20073;-40
2022/12/15 10:36:56;;;;;;;24.07;14.63;;;-2.70;99.90;;;;;;5042236;28;20044;-41
2022/12/15 10:39:22;;;;;;;21.97;13.93;;;-2.70;99.90;;;;;;5041118;28;20025;-41
2022/12/15 10:42:09;;;;;;;23.20;14.00;;;-2.60;99.90;;;;;;5041472;28;20086;-40
2022/12/15 10:44:37;;;;;;;22.93;14.43;;;-2.60;99.90;;;;;;5040541;28;20017;-39
2022/12/15 10:47:09;;;;;;;22.57;13.97;;;-2.60;99.90;;;;;;5042116;28;20071;-39
2022/12/15 10:49:35;;;;;;;22.67;14.85;;;-2.50;99.90;;;;;;5040324;28;20056;-40
2022/12/15 10:52:01;;;;;;;19.20;12.53;;;-2.50;99.90;;;;;;5040560;28;20480;-40
2022/12/15 10:54:34;;;;;;;20.77;13.03;;;-2.40;99.90;;;;;;5041173;28;20575;-40
2022/12/15 10:57:14;;;;;;;22.23;13.93;;;-2.40;99.90;;;;;;5041391;28;20136;-40
2022/12/15 10:59:40;;;;;;;20.20;12.90;;;-2.30;99.90;;;;;;5040627;28;20047;-40
2022/12/15 11:02:22;;;;;;;20.93;14.17;;;-2.30;99.90;;;;;;5041404;28;20040;-40
2022/12/15 11:04:57;;;;;;;23.20;14.45;;;-2.20;99.90;;;;;;5041047;28;20755;-40
2022/12/15 11:07:29;;;;;;;23.70;14.83;;;-2.10;99.90;;;;;;5041208;28;20037;-40
2022/12/15 11:10:12;;;;;;;20.73;13.63;;;-2.10;99.90;;;;;;5041273;28;20052;-38
2022/12/15 11:12:50;;;;;;;23.85;14.98;;;-2.00;99.90;;;;;;5041378;28;20064;-40
2022/12/15 11:15:22;;;;;;;22.10;14.50;;;-1.90;99.90;;;;;;5040849;28;20036;-40
2022/12/15 11:18:22;;;;;;;24.17;14.40;;;-1.90;99.90;;;;;;5040392;28;20389;-40
2022/12/15 11:20:55;;;;;;;20.00;13.27;;;-1.90;99.90;;;;;;5040509;28;20070;-39
2022/12/15 11:24:05;;;;;;;23.00;13.77;;;-1.90;99.90;;;;;;5041463;28;20762;-40
2022/12/15 11:26:43;;;;;;;21.90;12.90;;;-1.80;99.90;;;;;;5023058;28;20598;-40
2022/12/15 11:29:43;;;;;;;23.87;13.70;;;-1.70;99.90;;;;;;5039719;28;20640;-40
2022/12/15 11:32:11;;;;;;;21.40;13.63;;;-1.70;99.90;;;;;;5033159;28;20045;-38
2022/12/15 11:34:44;;;;;;;19.50;12.93;;;-1.60;99.90;;;;;;5039891;28;20108;-39
2022/12/15 11:37:31;;;;;;;;;;;-1.60;99.90;;;;;;5041218;28;20040;-35
2022/12/15 11:40:18;;;;;;;18.63;12.53;;;-1.60;99.90;;;;;;5039339;28;20645;-40
2022/12/15 11:43:11;;;;;;;21.13;13.40;;;-1.50;99.90;;;;;;5040559;28;20675;-41
2022/12/15 11:45:46;;;;;;;18.23;12.35;;;-1.50;99.90;;;;;;5039871;28;20029;-39
2022/12/15 11:48:28;;;;;;;21.17;12.23;;;-1.50;99.90;;;;;;5039648;28;20064;-40
2022/12/15 11:51:07;;;;;;;19.10;12.65;;;-1.50;99.90;;;;;;5040651;28;20029;-40
2022/12/15 11:53:59;;;;;;;19.00;13.07;;;-1.40;99.90;;;;;;5039200;28;20032;-39
2022/12/15 11:56:49;;;;;;;16.23;11.70;;;-1.30;99.90;;;;;;5038788;28;20043;-42
2022/12/15 11:59:45;;;;;;;19.60;13.00;;;-1.30;99.90;;;;;;5019005;28;20124;-40
2022/12/15 12:02:37;;;;;;;19.03;13.20;;;-1.20;99.90;;;;;;5037506;28;20036;-39
2022/12/15 12:05:17;;;;;;;20.47;14.30;;;-1.10;99.90;;;;;;5038709;28;20033;-40
2022/12/15 12:07:47;;;;;;;21.10;14.00;;;-1.10;99.90;;;;;;5040467;28;20033;-40
2022/12/15 12:10:35;;;;;;;19.47;14.27;;;-0.90;99.90;;;;;;5040344;28;20739;-40
2022/12/15 12:13:26;;;;;;;18.60;13.40;;;-0.80;99.90;;;;;;5040507;28;20036;-41
2022/12/15 12:16:15;;;;;;;24.60;15.77;;;-0.70;99.90;;;;;;5040230;28;20029;-40
2022/12/15 12:19:10;;;;;;;22.07;15.10;;;-0.60;99.90;;;;;;5041125;28;20450;-38
2022/12/15 12:21:41;;;;;;;22.87;15.07;;;-0.50;99.90;;;;;;5041057;28;20056;-41
2022/12/15 12:24:32;;;;;;;24.80;16.20;;;-0.50;99.90;;;;;;5040356;28;20025;-40
2022/12/15 12:27:17;;;;;;;19.37;14.47;;;-0.50;99.90;;;;;;5040923;28;20412;-41
2022/12/15 12:29:48;;;;;;;22.43;14.10;;;-0.50;99.90;;;;;;5040889;28;20029;-38
2022/12/15 12:32:46;;;;;;;22.67;14.40;;;-0.50;99.90;;;;;;5040004;28;20481;-41
2022/12/15 12:35:15;;;;;;;21.07;14.40;;;-0.50;99.90;;;;;;5020484;28;20144;-37
2022/12/15 12:37:40;;;;;;;20.80;13.97;;;-0.40;99.90;;;;;;5034893;28;20127;-38
2022/12/15 12:40:40;;;;;;;23.53;15.33;;;-0.40;99.90;;;;;;5046665;28;20085;-42
2022/12/15 12:43:07;;;;;;;20.00;14.43;;;-0.30;99.90;;;;;;5047191;28;20033;-37
2022/12/15 12:45:43;;;;;;;24.07;15.47;;;-0.20;99.90;;;;;;5047040;28;20033;-40
2022/12/15 12:48:28;;;;;;;21.80;15.37;;;-0.10;99.90;;;;;;5046287;28;20033;-40
2022/12/15 12:51:22;;;;;;;21.67;15.93;;;-0.10;99.90;;;;;;5026416;28;20112;-41
2022/12/15 12:53:48;;;;;;;20.70;14.73;;;-0.10;99.90;;;;;;5047112;28;20035;-40
2022/12/15 12:56:41;;;;;;;22.10;14.73;;;0.00;99.90;;;;;;5047039;28;20029;-40
2022/12/15 12:59:28;;;;;;;20.40;14.65;;;0.00;99.90;;;;;;5045982;28;20098;-38
2022/12/15 13:02:17;;;;;;;22.45;15.43;;;0.10;99.90;;;;;;5046368;28;20048;-39
2022/12/15 13:04:50;;;;;;;21.37;14.33;;;0.20;99.90;;;;;;5046724;28;20170;-38
2022/12/15 13:07:29;;;;;;;;;;;0.30;99.90;;;;;;5047177;28;20464;-39
2022/12/15 13:10:14;;;;;;;20.70;14.60;;;0.40;99.90;;;;;;5047163;28;20782;-39
2022/12/15 13:12:52;;;;;;;20.85;14.73;;;0.50;99.90;;;;;;5046481;28;20098;-40
2022/12/15 13:15:29;;;;;;;23.93;14.57;;;0.50;99.90;;;;;;5037199;28;20025;-39
2022/12/15 13:18:15;;;;;;;20.17;13.53;;;0.60;99.90;;;;;;5046378;28;20143;-38
2022/12/15 13:20:41;;;;;;;21.83;15.52;;;0.60;99.90;;;;;;5046659;28;20040;-35
2022/12/15 13:23:39;;;;;;;21.97;16.03;;;0.70;99.90;;;;;;5046892;28;20029;-39
2022/12/15 13:26:04;;;;;;;24.27;16.93;;;0.70;99.90;;;;;;5046565;28;20864;-39
2022/12/15 13:28:39;;;;;;;21.15;15.57;;;0.60;99.90;;;;;;5046926;28;20025;-40
2022/12/15 13:31:17;;;;;;;23.08;16.45;;;0.60;99.90;;;;;;5047118;28;20062;-41
2022/12/15 13:33:51;;;;;;;22.30;16.27;;;0.50;99.90;;;;;;5046132;28;20056;-39
2022/12/15 13:36:35;;;;;;;24.48;16.15;;;0.50;99.90;;;;;;5046372;28;20037;-41
2022/12/15 13:39:11;;;;;;;21.67;15.32;;;0.50;99.90;;;;;;5044979;28;20029;-40
2022/12/15 13:41:40;;;;;;;21.77;15.43;;;0.60;99.90;;;;;;5044554;28;20033;-38
2022/12/15 13:44:22;;;;;;;22.63;15.55;;;0.60;99.90;;;;;;5045336;28;20051;-39
2022/12/15 13:46:52;;;;;;;23.23;14.68;;;0.60;99.90;;;;;;5045528;28;20087;-40
2022/12/15 13:49:27;;;;;;;21.58;14.98;;;0.60;99.90;;;;;;5044796;28;20567;-40
2022/12/15 13:52:01;;;;;;;21.33;14.73;;;0.60;99.90;;;;;;5042203;28;20029;-41
2022/12/15 13:54:34;;;;;;;23.58;15.32;;;0.60;99.90;;;;;;5042202;28;20021;-36
2022/12/15 13:57:08;;;;;;;20.70;14.98;;;0.60;99.90;;;;;;5042554;28;20075;-42
2022/12/15 13:59:44;;;;;;;25.83;16.10;;;0.70;99.90;;;;;;5042941;28;20029;-40
2022/12/15 14:02:29;;;;;;;22.42;16.92;;;0.70;99.90;;;;;;5041686;28;20036;-38
2022/12/15 14:05:16;;;;;;;20.92;15.43;;;0.70;99.90;;;;;;5041575;28;20024;-39
2022/12/15 14:07:45;;;;;;;21.85;15.32;;;0.60;99.90;;;;;;5042824;28;20021;-40
2022/12/15 14:10:21;;;;;;;22.05;15.55;;;0.50;99.90;;;;;;5041354;28;20031;-39
2022/12/15 14:12:48;;;;;;;25.50;16.20;;;0.50;99.90;;;;;;5042165;28;20061;-40
2022/12/15 14:15:16;;;;;;;20.42;15.07;;;0.40;99.90;;;;;;5042441;28;20033;-39
2022/12/15 14:17:48;;;;;;;22.55;16.20;;;0.40;99.90;;;;;;5042577;28;20132;-39
2022/12/15 14:20:22;;;;;;;22.35;15.68;;;0.40;99.90;;;;;;5043037;28;20033;-42
2022/12/15 14:22:49;;;;;;;21.42;15.02;;;0.30;99.90;;;;;;5043051;28;20060;-40
2022/12/15 14:25:24;;;;;;;22.20;16.13;;;0.30;99.90;;;;;;5043118;28;20029;-38
2022/12/15 14:27:49;;;;;;;24.48;15.88;;;0.30;99.90;;;;;;5042128;28;20923;-39
2022/12/15 14:30:21;;;;;;;23.25;16.77;;;0.20;99.90;;;;;;5042149;28;20029;-39
2022/12/15 14:33:18;;;;;;;32.22;20.52;;;0.20;99.90;;;;;;5031890;28;20088;-39
2022/12/15 14:35:48;;;;;;;27.55;19.00;;;0.20;99.90;;;;;;5037295;28;20029;-38
2022/12/15 14:38:34;;;;;;;26.13;18.38;;;0.20;99.90;;;;;;5042493;28;20048;-40
2022/12/15 14:41:02;;;;;;;28.52;18.25;;;0.30;99.90;;;;;;5042365;28;20021;-38
2022/12/15 14:43:36;;;;;;;23.58;16.52;;;0.30;99.90;;;;;;5042324;28;20109;-40
2022/12/15 14:46:14;;;;;;;24.42;16.95;;;0.30;99.90;;;;;;5041966;28;20021;-38
2022/12/15 14:48:53;;;;;;;23.90;16.38;;;0.40;99.90;;;;;;5042761;28;20024;-38
2022/12/15 14:51:20;;;;;;;23.10;16.65;;;0.40;99.90;;;;;;5042486;28;20051;-39
2022/12/15 14:53:51;;;;;;;27.50;17.13;;;0.40;99.90;;;;;;5042792;28;20131;-39
2022/12/15 14:56:17;;;;;;;23.90;16.25;;;0.50;99.90;;;;;;5042008;28;20021;-38
2022/12/15 14:58:44;;;;;;;20.33;15.77;;;0.40;99.90;;;;;;5041663;28;20056;-43
2022/12/15 15:01:49;;;;;;;21.92;15.82;;;0.40;99.90;;;;;;5041602;28;20017;-43
2022/12/15 15:04:28;;;;;;;25.30;17.48;;;0.30;99.90;;;;;;5034925;28;20040;-42
2022/12/15 15:06:56;;;;;;;25.55;17.60;;;0.30;99.90;;;;;;5040943;28;20021;-40
2022/12/15 15:09:22;;;;;;;23.25;17.35;;;0.20;99.90;;;;;;5042026;28;20099;-39
2022/12/15 15:11:54;;;;;;;25.08;17.88;;;0.20;99.90;;;;;;5041221;28;20392;-37